Time;durP1;ratioP1;P1;durP2;ratioP2;P2;SDS_P1;SDS_P2;PMS_P1;PMS_P2;Temp;Humidity;BMP_temperature;BMP_pressure;BME280_temperature;BME280_humidity;BME280_pressure;Samples;Min_cycle;Max_cycle;Signal;HPM_P1;HPM_P2
2023/10/05 00:01:44;;;;;;;8.50;2.03;;;13.70;99.90;;;;;;5066598;28;20212;-50
2023/10/05 00:04:15;;;;;;;8.37;2.93;;;13.70;99.90;;;;;;5078953;28;20251;-46
2023/10/05 00:06:44;;;;;;;7.77;2.33;;;13.70;99.90;;;;;;5083620;28;20687;-46
2023/10/05 00:09:15;;;;;;;10.20;2.20;;;13.70;99.90;;;;;;5079614;28;20240;-47
2023/10/05 00:11:44;;;;;;;9.53;2.83;;;13.70;99.90;;;;;;5082134;28;20185;-49
2023/10/05 00:14:12;;;;;;;4.13;1.97;;;13.70;99.90;;;;;;5080684;28;20225;-46
2023/10/05 00:16:44;;;;;;;6.97;2.57;;;13.80;99.90;;;;;;5041540;28;20190;-49
2023/10/05 00:19:12;;;;;;;7.83;2.47;;;13.80;99.90;;;;;;5065326;28;20226;-46
2023/10/05 00:21:47;;;;;;;4.10;2.20;;;13.80;99.90;;;;;;5082245;28;20202;-45
2023/10/05 00:24:13;;;;;;;6.97;2.20;;;13.80;99.90;;;;;;5080569;28;20273;-47
2023/10/05 00:26:43;;;;;;;8.03;2.23;;;13.80;99.90;;;;;;5082348;28;20206;-47
2023/10/05 00:29:18;;;;;;;5.90;1.80;;;13.80;99.90;;;;;;5080784;28;20684;-45
2023/10/05 00:31:46;;;;;;;7.27;2.00;;;13.80;99.90;;;;;;5053152;28;20205;-47
2023/10/05 00:34:21;;;;;;;5.03;1.70;;;13.80;99.90;;;;;;5085808;28;20711;-45
2023/10/05 00:36:50;;;;;;;3.70;2.43;;;13.80;99.90;;;;;;5084759;28;20196;-48
2023/10/05 00:39:19;;;;;;;7.77;2.03;;;13.90;99.90;;;;;;5082408;28;20209;-52
2023/10/05 00:41:49;;;;;;;4.77;2.00;;;13.90;99.90;;;;;;5075168;28;20621;-47
2023/10/05 00:44:16;;;;;;;4.40;1.70;;;13.90;99.90;;;;;;5061157;28;20200;-49
2023/10/05 00:46:49;;;;;;;4.93;2.00;;;13.90;99.90;;;;;;5086098;28;20202;-47
2023/10/05 00:49:19;;;;;;;6.83;1.70;;;14.00;99.90;;;;;;5069138;28;20611;-48
2023/10/05 00:51:55;;;;;;;6.27;1.93;;;14.00;99.90;;;;;;5085944;28;20221;-47
2023/10/05 00:54:30;;;;;;;8.20;1.80;;;13.90;99.90;;;;;;5073057;28;20878;-48
2023/10/05 00:57:01;;;;;;;3.97;1.90;;;13.90;99.90;;;;;;5075863;28;20201;-48
2023/10/05 00:59:31;;;;;;;4.30;2.00;;;14.00;99.90;;;;;;5084913;28;20308;-49
2023/10/05 01:02:14;;;;;;;6.40;1.93;;;14.00;99.90;;;;;;5083102;28;20206;-48
2023/10/05 01:04:53;;;;;;;8.93;2.30;;;14.00;99.90;;;;;;5035010;28;20676;-47
2023/10/05 01:07:39;;;;;;;4.47;1.63;;;14.00;99.90;;;;;;5078835;28;20197;-49
2023/10/05 01:10:29;;;;;;;5.10;2.20;;;14.00;99.90;;;;;;5081146;28;20193;-52
2023/10/05 01:12:58;;;;;;;4.53;2.03;;;13.90;99.90;;;;;;5075207;28;20202;-45
2023/10/05 01:15:31;;;;;;;4.63;1.90;;;14.00;99.90;;;;;;5084629;28;20297;-46
2023/10/05 01:17:59;;;;;;;3.13;1.67;;;14.00;99.90;;;;;;5081384;28;20279;-46
2023/10/05 01:20:29;;;;;;;6.80;2.10;;;13.90;99.90;;;;;;5055409;28;20672;-48
2023/10/05 01:23:01;;;;;;;6.50;2.13;;;14.00;99.90;;;;;;5083796;28;20202;-46
2023/10/05 01:25:30;;;;;;;7.73;2.03;;;13.90;99.90;;;;;;5084065;28;20846;-46
2023/10/05 01:27:57;;;;;;;7.27;2.10;;;14.00;99.90;;;;;;5083204;28;20213;-48
2023/10/05 01:30:24;;;;;;;3.77;2.30;;;13.90;99.90;;;;;;5083146;28;20190;-46
2023/10/05 01:32:51;;;;;;;6.77;2.00;;;14.00;99.90;;;;;;5085207;28;20205;-45
2023/10/05 01:35:19;;;;;;;6.17;2.03;;;14.00;99.90;;;;;;5034250;28;20210;-47
2023/10/05 01:37:47;;;;;;;7.00;2.13;;;13.90;99.90;;;;;;5085079;28;20194;-48
2023/10/05 01:40:20;;;;;;;10.50;2.53;;;13.90;99.90;;;;;;5081662;28;20208;-49
2023/10/05 01:42:51;;;;;;;8.40;2.57;;;14.00;99.90;;;;;;5081912;28;20572;-46
2023/10/05 01:45:22;;;;;;;5.03;2.00;;;13.90;99.90;;;;;;5078608;28;20304;-51
2023/10/05 01:47:50;;;;;;;4.30;2.00;;;14.00;99.90;;;;;;5083267;28;20271;-46
2023/10/05 01:50:19;;;;;;;8.30;2.10;;;13.90;99.90;;;;;;5043925;28;20202;-47
2023/10/05 01:52:52;;;;;;;6.40;2.10;;;14.00;99.90;;;;;;5091239;28;20263;-47
2023/10/05 01:55:20;;;;;;;6.67;2.27;;;13.90;99.90;;;;;;5082768;28;20947;-46
2023/10/05 01:57:49;;;;;;;5.93;1.70;;;13.90;99.90;;;;;;5083915;28;20728;-47
2023/10/05 02:00:19;;;;;;;5.57;2.10;;;13.90;99.90;;;;;;5081609;28;20887;-45
2023/10/05 02:02:48;;;;;;;6.57;2.40;;;13.90;99.90;;;;;;5084205;28;20213;-45
2023/10/05 02:05:15;;;;;;;6.07;2.70;;;13.90;99.90;;;;;;5033974;28;20206;-47
2023/10/05 02:07:42;;;;;;;8.50;2.60;;;13.90;99.90;;;;;;5091439;28;20206;-46
2023/10/05 02:10:13;;;;;;;9.33;2.33;;;13.90;99.90;;;;;;5080258;28;20190;-46
2023/10/05 02:12:41;;;;;;;5.60;1.67;;;13.90;99.90;;;;;;5079018;28;20202;-46
2023/10/05 02:15:15;;;;;;;4.90;1.90;;;13.90;99.90;;;;;;5074137;28;20221;-46
2023/10/05 02:17:46;;;;;;;4.63;2.10;;;13.90;99.90;;;;;;5080041;28;20193;-49
2023/10/05 02:20:38;;;;;;;5.37;1.90;;;13.80;99.90;;;;;;5077977;28;20589;-48
2023/10/05 02:23:24;;;;;;;3.27;1.67;;;13.80;99.90;;;;;;5057766;28;20332;-45
2023/10/05 02:25:56;;;;;;;4.60;1.70;;;13.80;99.90;;;;;;5079370;28;20189;-46
2023/10/05 02:28:25;;;;;;;5.47;1.90;;;13.80;99.90;;;;;;5082080;28;20213;-48
2023/10/05 02:30:59;;;;;;;3.80;1.53;;;13.80;99.90;;;;;;5082564;28;20255;-50
2023/10/05 02:33:27;;;;;;;5.97;2.23;;;13.70;99.90;;;;;;5083139;28;20353;-49
2023/10/05 02:36:09;;;;;;;9.60;2.47;;;13.80;99.90;;;;;;5063399;28;20271;-48
2023/10/05 02:38:37;;;;;;;9.10;2.30;;;13.70;99.90;;;;;;5068585;28;20214;-46
2023/10/05 02:41:05;;;;;;;8.50;2.30;;;13.70;99.90;;;;;;5070290;28;20570;-46
2023/10/05 02:43:39;;;;;;;10.07;2.00;;;13.70;99.90;;;;;;5075781;28;20194;-46
2023/10/05 02:46:11;;;;;;;5.53;2.47;;;13.70;99.90;;;;;;5072372;28;20190;-48
2023/10/05 02:48:41;;;;;;;6.97;2.57;;;13.70;99.90;;;;;;5070920;28;20228;-48
2023/10/05 02:51:10;;;;;;;5.70;2.13;;;13.70;99.90;;;;;;5083474;28;20190;-48
2023/10/05 02:53:41;;;;;;;4.93;2.20;;;13.70;99.90;;;;;;5031580;28;20905;-48
2023/10/05 02:56:27;;;;;;;4.97;2.10;;;13.70;99.90;;;;;;5068781;28;20213;-46
2023/10/05 02:58:55;;;;;;;5.40;1.87;;;13.70;99.90;;;;;;5065593;28;20213;-51
2023/10/05 03:01:24;;;;;;;6.23;2.17;;;13.70;99.90;;;;;;5066554;28;20194;-46
2023/10/05 03:03:52;;;;;;;5.80;2.87;;;13.70;99.90;;;;;;5066779;28;20190;-45
2023/10/05 03:06:22;;;;;;;5.27;1.70;;;13.70;99.90;;;;;;5082800;28;20221;-48
2023/10/05 03:08:49;;;;;;;8.77;2.37;;;13.70;99.90;;;;;;5049813;28;20218;-48
2023/10/05 03:11:18;;;;;;;4.10;1.67;;;13.70;99.90;;;;;;5068132;28;20201;-50
2023/10/05 03:13:46;;;;;;;6.50;2.00;;;13.70;99.90;;;;;;5065726;28;20303;-49
2023/10/05 03:16:16;;;;;;;9.73;2.30;;;13.70;99.90;;;;;;5067398;28;20598;-48
2023/10/05 03:18:48;;;;;;;6.60;1.93;;;13.70;99.90;;;;;;5063458;28;20271;-51
2023/10/05 03:21:18;;;;;;;5.77;1.77;;;13.70;99.90;;;;;;5068127;28;20197;-50
2023/10/05 03:23:46;;;;;;;3.77;1.80;;;13.70;99.90;;;;;;5048084;28;20206;-45
2023/10/05 03:26:17;;;;;;;5.43;2.00;;;13.70;99.90;;;;;;5070817;28;20213;-45
2023/10/05 03:28:45;;;;;;;8.77;1.60;;;13.80;99.90;;;;;;5062999;28;20222;-47
2023/10/05 03:31:23;;;;;;;7.20;2.10;;;13.80;99.90;;;;;;5054102;28;21278;-50
2023/10/05 03:33:52;;;;;;;13.80;3.13;;;13.80;99.90;;;;;;5074221;28;20759;-46
2023/10/05 03:36:20;;;;;;;9.03;2.20;;;13.80;99.90;;;;;;5065478;28;20259;-50
2023/10/05 03:38:55;;;;;;;5.80;1.60;;;13.80;99.90;;;;;;5070590;28;20244;-45
2023/10/05 03:41:26;;;;;;;6.20;1.90;;;13.80;99.90;;;;;;5046339;28;20201;-46
2023/10/05 03:43:57;;;;;;;6.23;1.97;;;13.80;99.90;;;;;;5068828;28;20190;-45
2023/10/05 03:46:25;;;;;;;4.80;2.00;;;13.80;99.90;;;;;;5068966;28;20273;-51
2023/10/05 03:48:59;;;;;;;8.57;2.23;;;13.80;99.90;;;;;;5081957;28;20226;-48
2023/10/05 03:51:28;;;;;;;6.97;1.80;;;13.80;99.90;;;;;;5080615;28;21200;-47
2023/10/05 03:53:56;;;;;;;8.93;2.17;;;13.80;99.90;;;;;;5067695;28;20186;-49
2023/10/05 03:56:27;;;;;;;5.53;2.03;;;13.80;99.90;;;;;;5034236;28;20206;-46
2023/10/05 03:58:54;;;;;;;7.43;2.37;;;13.80;99.90;;;;;;5072394;28;20225;-45
2023/10/05 04:01:23;;;;;;;6.60;2.60;;;13.80;99.90;;;;;;5063370;28;20932;-46
2023/10/05 04:03:50;;;;;;;5.97;2.10;;;13.80;99.90;;;;;;5068666;28;20277;-46
2023/10/05 04:06:20;;;;;;;8.33;2.20;;;13.80;99.90;;;;;;5056290;28;20268;-46
2023/10/05 04:08:54;;;;;;;2.50;1.80;;;13.80;99.90;;;;;;5079769;28;20215;-46
2023/10/05 04:11:21;;;;;;;4.03;2.00;;;13.80;99.90;;;;;;5049857;28;21545;-45
2023/10/05 04:13:49;;;;;;;7.03;1.70;;;13.80;99.90;;;;;;5075934;28;20194;-48
2023/10/05 04:16:22;;;;;;;5.93;1.93;;;13.80;99.90;;;;;;5076719;28;20225;-46
2023/10/05 04:18:51;;;;;;;8.13;2.00;;;13.80;99.90;;;;;;5080205;28;20213;-46
2023/10/05 04:21:19;;;;;;;5.63;2.10;;;13.90;99.90;;;;;;5065186;28;21201;-50
2023/10/05 04:23:49;;;;;;;6.20;2.20;;;13.90;99.90;;;;;;5081100;28;20225;-46
2023/10/05 04:26:18;;;;;;;7.93;2.40;;;13.90;99.90;;;;;;5060858;28;20202;-47
2023/10/05 04:28:53;;;;;;;9.47;2.27;;;13.90;99.90;;;;;;5078311;28;20242;-46
2023/10/05 04:31:22;;;;;;;5.90;1.80;;;13.90;99.90;;;;;;5082631;28;20272;-45
2023/10/05 04:33:50;;;;;;;7.57;1.97;;;13.90;99.90;;;;;;5069685;28;20286;-48
2023/10/05 04:36:22;;;;;;;3.60;2.10;;;13.90;99.90;;;;;;5069549;28;20218;-45
2023/10/05 04:38:49;;;;;;;9.10;2.43;;;13.90;99.90;;;;;;5072421;28;20325;-48
2023/10/05 04:41:19;;;;;;;2.83;2.00;;;14.00;99.90;;;;;;5063699;28;20194;-50
2023/10/05 04:43:48;;;;;;;9.90;2.33;;;14.00;99.90;;;;;;5072541;28;20206;-44
2023/10/05 04:46:17;;;;;;;3.53;1.67;;;13.90;99.90;;;;;;5069478;28;20208;-52
2023/10/05 04:48:55;;;;;;;8.47;1.97;;;13.90;99.90;;;;;;5084709;28;20224;-50
2023/10/05 04:51:26;;;;;;;7.23;2.37;;;13.90;99.90;;;;;;5068873;28;20190;-46
2023/10/05 04:53:58;;;;;;;6.10;1.90;;;13.80;99.90;;;;;;5073913;28;20205;-45
2023/10/05 04:56:35;;;;;;;8.37;2.33;;;13.80;99.90;;;;;;5075515;28;20540;-47
2023/10/05 05:02:00;;;;;;;5.70;2.00;;;13.70;99.90;;;;;;5083155;28;20263;-50
2023/10/05 05:04:28;;;;;;;7.03;2.23;;;13.70;99.90;;;;;;5078271;28;20202;-45
2023/10/05 05:06:58;;;;;;;4.57;1.97;;;13.60;99.90;;;;;;5074054;28;20561;-44
2023/10/05 05:09:29;;;;;;;8.03;2.07;;;13.60;99.90;;;;;;5069893;28;20213;-47
2023/10/05 05:12:00;;;;;;;6.57;2.10;;;13.60;99.90;;;;;;5074115;28;20279;-43
2023/10/05 05:14:27;;;;;;;7.40;2.27;;;13.60;99.90;;;;;;5051535;28;20206;-44
2023/10/05 05:16:58;;;;;;;7.70;2.00;;;13.50;99.90;;;;;;5082644;28;20213;-43
2023/10/05 05:19:25;;;;;;;6.50;2.03;;;13.50;99.90;;;;;;5079867;28;20234;-46
2023/10/05 05:21:52;;;;;;;16.33;2.73;;;13.50;99.90;;;;;;5066176;28;20246;-47
2023/10/05 05:24:20;;;;;;;5.40;2.23;;;13.50;99.90;;;;;;5075345;28;20204;-46
2023/10/05 05:26:47;;;;;;;7.43;1.70;;;13.40;99.90;;;;;;5077082;28;20270;-45
2023/10/05 05:29:14;;;;;;;8.03;2.40;;;13.40;99.90;;;;;;5071081;28;20221;-50
2023/10/05 05:31:41;;;;;;;8.80;2.47;;;13.40;99.90;;;;;;5074925;28;20217;-45
2023/10/05 05:34:10;;;;;;;9.63;2.10;;;13.40;99.90;;;;;;5085800;28;20202;-49
2023/10/05 05:36:37;;;;;;;10.30;2.40;;;13.40;99.90;;;;;;5078538;28;20267;-43
2023/10/05 05:39:04;;;;;;;7.20;2.50;;;13.40;99.90;;;;;;5069393;28;20220;-49
2023/10/05 05:41:37;;;;;;;6.50;2.53;;;13.40;99.90;;;;;;5082962;28;20381;-46
2023/10/05 05:44:06;;;;;;;11.17;3.13;;;13.40;99.90;;;;;;5080766;28;20194;-50
2023/10/05 05:46:33;;;;;;;6.67;2.43;;;13.40;99.90;;;;;;5071711;28;20961;-44
2023/10/05 05:49:00;;;;;;;8.17;2.30;;;13.40;99.90;;;;;;5086190;28;20237;-48
2023/10/05 05:51:27;;;;;;;5.10;2.47;;;13.40;99.90;;;;;;5075137;28;20205;-48
2023/10/05 05:53:56;;;;;;;7.10;2.03;;;13.30;99.90;;;;;;5080392;28;20190;-52
2023/10/05 05:56:28;;;;;;;6.60;2.83;;;13.30;99.90;;;;;;5080294;28;20289;-48
2023/10/05 05:58:56;;;;;;;10.03;2.73;;;13.40;99.90;;;;;;5073301;28;20255;-51
2023/10/05 06:01:23;;;;;;;7.47;3.30;;;13.40;99.90;;;;;;5054348;28;20206;-43
2023/10/05 06:03:51;;;;;;;6.93;2.03;;;13.30;99.90;;;;;;5075821;28;20193;-53
2023/10/05 06:06:19;;;;;;;8.63;2.77;;;13.30;99.90;;;;;;5081772;28;20182;-48
2023/10/05 06:08:46;;;;;;;8.40;3.10;;;13.30;99.90;;;;;;5085628;28;20247;-51
2023/10/05 06:11:14;;;;;;;10.30;3.13;;;13.30;99.90;;;;;;5074495;28;20247;-46
2023/10/05 06:13:45;;;;;;;9.60;3.70;;;13.30;99.90;;;;;;5084139;28;20213;-50
2023/10/05 06:16:14;;;;;;;7.30;3.03;;;13.30;99.90;;;;;;5049739;28;20228;-45
2023/10/05 06:18:41;;;;;;;8.50;2.63;;;13.30;99.90;;;;;;5083554;28;20334;-48
2023/10/05 06:21:08;;;;;;;8.73;2.23;;;13.30;99.90;;;;;;5077426;28;20268;-49
2023/10/05 06:23:35;;;;;;;8.33;2.60;;;13.30;99.90;;;;;;5079493;28;20225;-44
2023/10/05 06:26:02;;;;;;;6.93;2.87;;;13.30;99.90;;;;;;5074638;28;20194;-49
2023/10/05 06:28:32;;;;;;;5.87;2.90;;;13.30;99.90;;;;;;5051746;28;20295;-46
2023/10/05 06:31:01;;;;;;;11.40;3.53;;;13.20;99.90;;;;;;5045105;28;20241;-45
2023/10/05 06:33:29;;;;;;;5.63;2.67;;;13.30;99.90;;;;;;5077945;28;20198;-49
2023/10/05 06:35:56;;;;;;;8.50;3.17;;;13.20;99.90;;;;;;5050563;28;20344;-48
2023/10/05 06:38:22;;;;;;;7.10;2.63;;;13.30;99.90;;;;;;5077239;28;20214;-46
2023/10/05 06:40:49;;;;;;;7.00;2.90;;;13.30;99.90;;;;;;5064947;28;20561;-43
2023/10/05 06:43:16;;;;;;;7.10;2.80;;;13.30;99.90;;;;;;5063868;28;20194;-50
2023/10/05 06:45:48;;;;;;;5.90;2.57;;;13.20;99.90;;;;;;5070623;28;20197;-49
2023/10/05 06:48:15;;;;;;;6.10;2.70;;;13.30;99.90;;;;;;5031291;28;20241;-50
2023/10/05 06:50:44;;;;;;;5.87;2.77;;;13.20;99.90;;;;;;5084736;28;20251;-48
2023/10/05 06:53:11;;;;;;;7.47;3.00;;;13.20;99.90;;;;;;5072602;28;20285;-50
2023/10/05 06:55:39;;;;;;;4.97;2.50;;;13.20;99.90;;;;;;5080932;28;20208;-44
2023/10/05 06:58:07;;;;;;;3.67;2.47;;;13.20;99.90;;;;;;5058131;28;20225;-49
2023/10/05 07:00:34;;;;;;;4.10;2.37;;;13.20;99.90;;;;;;5065372;28;20414;-43
2023/10/05 07:03:06;;;;;;;7.80;2.60;;;13.20;99.90;;;;;;5055054;28;20660;-44
2023/10/05 07:05:33;;;;;;;3.67;2.13;;;13.20;99.90;;;;;;5072968;28;20699;-46
2023/10/05 07:08:02;;;;;;;4.43;2.97;;;13.20;99.90;;;;;;5074069;28;20745;-46
2023/10/05 07:10:29;;;;;;;4.60;2.37;;;13.30;99.90;;;;;;5081816;28;20779;-46
2023/10/05 07:12:56;;;;;;;3.10;2.20;;;13.30;99.90;;;;;;5071978;28;20205;-46
2023/10/05 07:15:23;;;;;;;2.80;2.10;;;13.30;99.90;;;;;;5060702;28;20829;-47
2023/10/05 07:17:51;;;;;;;4.03;1.80;;;13.30;99.90;;;;;;5087797;28;20222;-45
2023/10/05 07:20:19;;;;;;;1.67;1.50;;;13.30;99.90;;;;;;5041403;28;20206;-49
2023/10/05 07:22:48;;;;;;;2.53;1.40;;;13.40;99.90;;;;;;5080060;28;20194;-46
2023/10/05 07:25:17;;;;;;;4.07;2.07;;;13.30;99.90;;;;;;5087720;28;20258;-51
2023/10/05 07:27:44;;;;;;;3.30;1.53;;;13.40;99.90;;;;;;5074764;28;20230;-44
2023/10/05 07:30:11;;;;;;;1.40;1.30;;;13.30;99.90;;;;;;5069764;28;20602;-47
2023/10/05 07:32:39;;;;;;;2.40;1.30;;;13.30;99.90;;;;;;5068049;28;22559;-43
2023/10/05 07:35:06;;;;;;;2.87;1.40;;;13.30;99.90;;;;;;5050310;28;20274;-47
2023/10/05 07:37:34;;;;;;;2.63;1.50;;;13.40;99.90;;;;;;5066769;28;21027;-44
2023/10/05 07:40:00;;;;;;;5.00;1.90;;;13.40;99.90;;;;;;5083718;28;20217;-44
2023/10/05 07:42:29;;;;;;;1.80;1.00;;;13.40;99.90;;;;;;5073391;28;20193;-46
2023/10/05 07:44:56;;;;;;;1.43;1.13;;;13.40;99.90;;;;;;5074844;28;20208;-46
2023/10/05 07:47:24;;;;;;;2.20;1.43;;;13.50;99.90;;;;;;5060779;28;20281;-45
2023/10/05 07:49:53;;;;;;;1.40;0.90;;;13.50;99.90;;;;;;5052970;28;20294;-44
2023/10/05 07:52:20;;;;;;;1.20;1.10;;;13.50;99.90;;;;;;5073920;28;20197;-49
2023/10/05 07:54:47;;;;;;;2.50;1.10;;;13.50;99.90;;;;;;5076245;28;20201;-43
2023/10/05 07:57:14;;;;;;;2.40;1.07;;;13.50;99.90;;;;;;5079941;28;20278;-47
2023/10/05 07:59:43;;;;;;;5.77;1.50;;;13.60;99.90;;;;;;5073061;28;20230;-45
2023/10/05 08:02:10;;;;;;;1.63;1.13;;;13.60;99.90;;;;;;5069535;28;20214;-47
2023/10/05 08:04:37;;;;;;;1.70;1.53;;;13.60;99.90;;;;;;5041904;28;20206;-47
2023/10/05 08:07:04;;;;;;;2.73;1.50;;;13.70;99.90;;;;;;5082278;28;20336;-53
2023/10/05 08:09:31;;;;;;;2.73;1.37;;;13.70;99.90;;;;;;5062211;28;20225;-44
2023/10/05 08:11:59;;;;;;;3.50;0.93;;;13.70;99.90;;;;;;5087904;28;20201;-44
2023/10/05 08:14:25;;;;;;;1.43;0.73;;;13.70;99.90;;;;;;5073090;28;20861;-43
2023/10/05 08:16:55;;;;;;;1.97;1.00;;;13.70;99.90;;;;;;5083133;28;20281;-43
2023/10/05 08:19:24;;;;;;;1.20;1.20;;;13.70;99.90;;;;;;5062633;28;20233;-48
2023/10/05 08:21:52;;;;;;;2.27;1.10;;;13.80;99.90;;;;;;5051499;28;20740;-44
2023/10/05 08:24:20;;;;;;;1.83;0.80;;;13.80;99.90;;;;;;5059393;28;20623;-51
2023/10/05 08:26:49;;;;;;;1.50;0.90;;;13.80;99.90;;;;;;5078527;28;20626;-43
2023/10/05 08:29:18;;;;;;;4.30;1.40;;;13.90;99.90;;;;;;5078202;28;20278;-47
2023/10/05 08:31:45;;;;;;;2.40;0.70;;;13.90;99.90;;;;;;5065552;28;20209;-44
2023/10/05 08:34:20;;;;;;;0.93;0.60;;;14.00;99.90;;;;;;5070511;28;20202;-44
2023/10/05 08:36:49;;;;;;;1.37;0.50;;;14.00;99.90;;;;;;5054004;28;20958;-42
2023/10/05 08:39:21;;;;;;;2.60;1.13;;;14.10;99.90;;;;;;5073699;28;20234;-47
2023/10/05 08:41:49;;;;;;;2.50;0.90;;;14.10;99.90;;;;;;5078732;28;20668;-44
2023/10/05 08:44:26;;;;;;;1.53;0.60;;;14.10;99.90;;;;;;5079455;28;20209;-51
2023/10/05 08:46:55;;;;;;;1.83;0.63;;;14.20;99.90;;;;;;5072712;28;20197;-48
2023/10/05 08:49:36;;;;;;;0.60;0.50;;;14.10;99.90;;;;;;5068296;28;20233;-47
2023/10/05 08:52:13;;;;;;;0.93;0.50;;;14.20;99.90;;;;;;5046876;28;20197;-44
2023/10/05 08:54:46;;;;;;;0.80;0.57;;;14.20;99.90;;;;;;5077217;28;20298;-43
2023/10/05 08:57:17;;;;;;;0.53;0.53;;;14.30;99.90;;;;;;5074472;28;20214;-48
2023/10/05 09:00:06;;;;;;;1.47;0.90;;;14.30;99.90;;;;;;5085176;28;20209;-44
2023/10/05 09:02:42;;;;;;;3.03;0.80;;;14.40;99.90;;;;;;5071703;28;20271;-43
2023/10/05 09:05:15;;;;;;;3.20;0.73;;;14.50;99.90;;;;;;5080957;28;20242;-48
2023/10/05 09:07:55;;;;;;;1.90;0.60;;;14.50;99.90;;;;;;5060544;28;20668;-45
2023/10/05 09:10:41;;;;;;;3.30;1.23;;;14.50;99.90;;;;;;5074146;28;20192;-43
2023/10/05 09:13:13;;;;;;;1.20;0.70;;;14.40;99.90;;;;;;5071036;28;20535;-49
2023/10/05 09:15:52;;;;;;;1.20;0.93;;;14.50;99.90;;;;;;5086335;28;20190;-46
2023/10/05 09:18:25;;;;;;;5.20;1.00;;;14.60;99.90;;;;;;5072394;28;20757;-48
2023/10/05 09:20:55;;;;;;;1.80;0.97;;;14.70;99.90;;;;;;5079449;28;20202;-44
2023/10/05 09:23:32;;;;;;;2.17;0.70;;;14.80;99.90;;;;;;5055155;28;20285;-45
2023/10/05 09:26:01;;;;;;;2.43;0.90;;;14.90;99.90;;;;;;5070287;28;20805;-45
2023/10/05 09:28:34;;;;;;;3.13;1.07;;;14.90;99.90;;;;;;5081097;28;20304;-45
2023/10/05 09:31:07;;;;;;;2.83;0.90;;;15.00;99.90;;;;;;5082425;28;20252;-48
2023/10/05 09:33:43;;;;;;;3.13;0.80;;;15.00;99.90;;;;;;5083967;28;20206;-49
2023/10/05 09:36:19;;;;;;;4.63;0.80;;;15.10;99.90;;;;;;5083755;28;20209;-44
2023/10/05 09:38:47;;;;;;;4.77;0.90;;;15.10;99.90;;;;;;5054660;28;20225;-44
2023/10/05 09:41:19;;;;;;;2.13;0.60;;;15.10;99.90;;;;;;5077177;28;20194;-46
2023/10/05 09:44:00;;;;;;;4.53;1.10;;;15.10;99.90;;;;;;5074439;28;20282;-49
2023/10/05 09:46:29;;;;;;;2.90;1.40;;;15.30;99.90;;;;;;5082266;28;20591;-44
2023/10/05 09:49:03;;;;;;;2.47;0.70;;;15.20;99.90;;;;;;5070524;28;20268;-45
2023/10/05 09:51:34;;;;;;;4.03;0.80;;;15.20;99.90;;;;;;5076256;28;20209;-44
2023/10/05 09:54:03;;;;;;;2.40;1.30;;;15.30;99.90;;;;;;5048841;28;21327;-49
2023/10/05 09:56:30;;;;;;;4.70;1.30;;;15.40;99.90;;;;;;5084185;28;20639;-44
2023/10/05 09:59:06;;;;;;;4.47;1.07;;;15.40;99.90;;;;;;5064342;28;20230;-44
2023/10/05 10:01:37;;;;;;;5.07;0.90;;;15.50;99.90;;;;;;5068073;28;20272;-45
2023/10/05 10:04:07;;;;;;;3.70;0.80;;;15.60;99.90;;;;;;5078508;28;20205;-44
2023/10/05 10:06:40;;;;;;;8.03;1.10;;;15.70;99.90;;;;;;5065735;28;20201;-46
2023/10/05 10:09:11;;;;;;;5.10;1.40;;;15.70;99.90;;;;;;5082792;28;20208;-50
2023/10/05 10:11:51;;;;;;;3.00;0.90;;;15.80;99.90;;;;;;5062756;28;20216;-44
2023/10/05 10:14:23;;;;;;;3.70;0.80;;;15.90;99.90;;;;;;5079904;28;20224;-49
2023/10/05 10:17:00;;;;;;;3.37;0.87;;;15.90;99.90;;;;;;5088754;28;20206;-43
2023/10/05 10:19:28;;;;;;;7.60;1.43;;;15.90;99.90;;;;;;5087289;28;20218;-47
2023/10/05 10:22:11;;;;;;;4.53;1.43;;;16.00;99.90;;;;;;5073230;28;20208;-44
2023/10/05 10:24:47;;;;;;;7.23;1.87;;;16.10;99.90;;;;;;5050606;28;20656;-48
2023/10/05 10:27:27;;;;;;;2.13;0.90;;;16.00;99.90;;;;;;5077892;28;20606;-48
2023/10/05 10:30:11;;;;;;;5.03;1.20;;;16.10;99.90;;;;;;5064007;28;20226;-43
2023/10/05 10:32:42;;;;;;;11.67;4.43;;;16.10;99.90;;;;;;5049062;28;20199;-46
2023/10/05 10:35:14;;;;;;;4.90;1.40;;;16.10;99.90;;;;;;5083214;28;20650;-50
2023/10/05 10:37:49;;;;;;;6.53;1.47;;;16.20;99.90;;;;;;5050785;28;20214;-45
2023/10/05 10:40:27;;;;;;;4.93;1.53;;;16.20;99.90;;;;;;5071174;28;20202;-46
2023/10/05 10:43:06;;;;;;;6.27;1.70;;;16.30;99.90;;;;;;5084338;28;20196;-45
2023/10/05 10:45:40;;;;;;;6.47;1.30;;;16.20;99.90;;;;;;5077633;28;20201;-46
2023/10/05 10:48:12;;;;;;;4.23;1.47;;;16.10;99.90;;;;;;5073810;28;20297;-44
2023/10/05 10:50:41;;;;;;;3.07;1.10;;;16.10;99.90;;;;;;5082829;28;20185;-44
2023/10/05 10:53:16;;;;;;;4.17;1.30;;;16.20;99.90;;;;;;5068169;28;20194;-48
2023/10/05 10:55:47;;;;;;;4.80;1.57;;;16.20;99.90;;;;;;5082230;28;20209;-45
2023/10/05 10:58:21;;;;;;;5.80;1.03;;;16.40;99.90;;;;;;5050594;28;20229;-50
2023/10/05 11:00:59;;;;;;;6.40;1.50;;;16.60;99.90;;;;;;5075952;28;20691;-43
2023/10/05 11:03:32;;;;;;;6.00;1.47;;;16.60;99.90;;;;;;5077949;28;20200;-48
2023/10/05 11:06:09;;;;;;;4.53;1.20;;;16.70;99.90;;;;;;5087514;28;20201;-47
2023/10/05 11:08:40;;;;;;;7.97;1.63;;;16.70;99.90;;;;;;5064751;28;20309;-47
2023/10/05 11:11:09;;;;;;;6.83;1.50;;;16.70;99.90;;;;;;5087613;28;20668;-49
2023/10/05 11:13:43;;;;;;;7.20;1.60;;;16.70;99.90;;;;;;5049664;28;20234;-46
2023/10/05 11:16:11;;;;;;;4.83;1.00;;;16.60;99.90;;;;;;5072131;28;20278;-46
2023/10/05 11:18:57;;;;;;;7.27;1.10;;;16.70;99.90;;;;;;5072353;28;20731;-46
2023/10/05 11:21:26;;;;;;;6.80;1.50;;;16.70;99.90;;;;;;5078152;28;20253;-48
2023/10/05 11:23:57;;;;;;;4.97;1.40;;;16.60;99.90;;;;;;5082294;28;20644;-46
2023/10/05 11:26:35;;;;;;;6.63;1.33;;;16.70;99.90;;;;;;5074801;28;20201;-44
2023/10/05 11:29:07;;;;;;;11.63;2.20;;;16.70;99.90;;;;;;5058042;28;20605;-49
2023/10/05 11:31:44;;;;;;;6.03;1.70;;;16.80;99.90;;;;;;5076395;28;20342;-46
2023/10/05 11:34:19;;;;;;;10.50;1.30;;;16.90;99.90;;;;;;5074224;28;20319;-52
2023/10/05 11:36:48;;;;;;;4.57;1.20;;;16.90;99.90;;;;;;5076747;28;20782;-49
2023/10/05 11:39:26;;;;;;;5.27;1.40;;;17.00;99.90;;;;;;5074227;28;20616;-44
2023/10/05 11:41:56;;;;;;;6.20;1.43;;;17.10;99.90;;;;;;5071179;28;20206;-51
2023/10/05 11:44:42;;;;;;;6.73;1.10;;;17.20;99.90;;;;;;5050756;28;20202;-45
2023/10/05 11:47:32;;;;;;;5.03;1.40;;;17.10;99.90;;;;;;5055811;28;20209;-47
2023/10/05 11:50:07;;;;;;;4.73;1.20;;;17.10;99.90;;;;;;5072290;28;20243;-47
2023/10/05 11:52:38;;;;;;;5.40;1.13;;;17.00;99.90;;;;;;5074468;28;20202;-44
2023/10/05 11:55:11;;;;;;;5.63;1.67;;;16.90;99.90;;;;;;5069448;28;23860;-49
2023/10/05 11:57:39;;;;;;;6.80;1.60;;;17.00;99.90;;;;;;5081199;28;20779;-50
2023/10/05 12:00:08;;;;;;;3.27;1.40;;;17.10;99.90;;;;;;5046505;28;20201;-48
2023/10/05 12:02:35;;;;;;;4.93;0.87;;;17.10;99.90;;;;;;5073906;28;20291;-50
2023/10/05 12:05:03;;;;;;;4.93;1.47;;;17.20;99.90;;;;;;5061766;28;20205;-47
2023/10/05 12:07:30;;;;;;;4.87;1.50;;;17.30;99.90;;;;;;5073098;28;20221;-50
2023/10/05 12:09:57;;;;;;;4.63;1.23;;;17.30;99.90;;;;;;5068435;28;20275;-49
2023/10/05 12:12:25;;;;;;;5.57;1.40;;;17.30;99.90;;;;;;5064451;28;20668;-49
2023/10/05 12:14:52;;;;;;;4.63;2.00;;;17.30;99.90;;;;;;5053975;28;20221;-48
2023/10/05 12:17:21;;;;;;;5.40;1.40;;;17.30;99.90;;;;;;5083613;28;20209;-45
2023/10/05 12:19:51;;;;;;;3.77;1.13;;;17.40;99.90;;;;;;5069890;28;20232;-50
2023/10/05 12:22:18;;;;;;;3.77;1.30;;;17.60;99.90;;;;;;5064382;28;20229;-52
2023/10/05 12:24:45;;;;;;;9.57;1.50;;;17.60;99.90;;;;;;5087584;28;20245;-46
2023/10/05 12:27:20;;;;;;;4.63;1.43;;;17.70;99.90;;;;;;5069456;28;20186;-47
2023/10/05 12:29:48;;;;;;;3.53;1.13;;;17.70;99.90;;;;;;5049698;28;20428;-45
2023/10/05 12:32:15;;;;;;;3.43;1.20;;;17.90;99.90;;;;;;5082743;28;20880;-51
2023/10/05 12:34:44;;;;;;;3.20;1.00;;;17.90;99.90;;;;;;5075991;28;20809;-47
2023/10/05 12:37:17;;;;;;;5.33;1.00;;;18.00;99.90;;;;;;5078560;28;20769;-48
2023/10/05 12:39:45;;;;;;;4.77;1.73;;;18.00;99.90;;;;;;5080354;28;20579;-49
2023/10/05 12:42:12;;;;;;;4.07;1.37;;;18.10;99.90;;;;;;5073626;28;20214;-51
2023/10/05 12:44:39;;;;;;;4.13;1.20;;;18.10;99.90;;;;;;5078123;28;20565;-51
2023/10/05 12:47:07;;;;;;;3.37;1.10;;;18.10;99.90;;;;;;5052381;28;20190;-51
2023/10/05 12:49:34;;;;;;;4.70;1.20;;;18.20;99.90;;;;;;5079238;28;20218;-47
2023/10/05 12:52:02;;;;;;;4.33;0.87;;;18.20;99.90;;;;;;5073480;28;20782;-49
2023/10/05 12:54:29;;;;;;;2.67;0.77;;;18.30;99.90;;;;;;5078583;28;20564;-47
2023/10/05 12:56:57;;;;;;;4.00;0.87;;;18.40;99.90;;;;;;5074144;28;20200;-48
2023/10/05 12:59:24;;;;;;;2.37;1.00;;;18.40;99.90;;;;;;5064469;28;20214;-48
2023/10/05 13:01:52;;;;;;;5.23;0.80;;;18.30;99.90;;;;;;5051314;28;20255;-47
2023/10/05 13:04:22;;;;;;;6.90;1.00;;;18.10;99.90;;;;;;5073345;28;20619;-52
2023/10/05 13:06:49;;;;;;;3.50;0.90;;;17.90;99.90;;;;;;5077593;28;20202;-45